Latest Weather Observations for Roebourne Airport

IDW60801

Issued at 7:02 pm WST Sunday 29 May 2016 (issued every 30 minutes, with the page automatically refreshed every 10 minutes)

About weather observations | Map of weather stations | Latest weather observations for WA | Other Formats
Station Details ID: 004090 Name: ROEBOURNE AERO Lat: -20.76 Lon: 117.16 Height: 10.7 m
Data from the previous 72 hours. | See also: Recent months at Roebourne Airport
Date/Time
WST
Temp
°C
App
Temp
°C
Dew
Point
Rel
Hum
%
Delta-T
°C
Wind Press
QNH
hPa
Press
MSL
hPa
Rain
since 9 am
mm
Dir
 
Spd
km/h
Gust
km/h
Spd
kts
Gust
kts
29/07:00pm 25.2 24.0 16.1 57 5.6 WNW 17 20 9 11 1012.6 1012.6 0.0
29/06:30pm 25.5 23.8 13.7 48 6.9 NW 15 17 8 9 1012.3 1012.3 0.0
29/06:00pm 26.5 24.3 12.2 41 8.2 NW 15 19 8 10 1011.9 1011.9 0.0
29/05:30pm 27.8 24.4 10.5 34 9.8 NW 19 24 10 13 1011.7 1011.7 0.0
29/05:00pm 29.1 24.9 9.8 30 10.8 NW 22 26 12 14 1011.5 1011.5 0.0
29/04:30pm 30.2 26.3 10.7 30 11.2 NW 22 28 12 15 1011.3 1011.3 0.0
29/04:00pm 30.7 27.0 11.6 31 11.1 NW 22 28 12 15 1010.9 1010.9 0.0
29/03:30pm 31.3 27.0 9.5 26 12.3 NW 22 28 12 15 1010.8 1010.8 0.0
29/03:00pm 31.8 28.1 9.3 25 12.7 NW 19 26 10 14 1010.7 1010.7 0.0
29/02:30pm 32.2 28.2 8.4 23 13.3 NW 19 28 10 15 1010.7 1010.7 0.0
29/02:00pm 32.8 28.5 6.9 20 14.1 NW 19 26 10 14 1010.7 1010.7 0.0
29/01:30pm 32.7 28.9 8.9 23 13.4 NNW 19 26 10 14 1011.1 1011.1 0.0
29/01:00pm 32.2 28.7 10.8 27 12.4 NNW 20 28 11 15 1011.3 1011.3 0.0
29/12:30pm 31.9 29.1 12.7 31 11.4 N 19 26 10 14 1011.8 1011.8 0.0
29/12:00pm 32.0 30.1 11.7 28 11.9 NE 13 20 7 11 1012.3 1012.3 0.0
29/11:30am 31.5 30.4 10.8 28 11.9 NNE 7 15 4 8 1012.8 1012.8 0.0
29/11:00am 30.3 28.7 10.3 29 11.4 NNE 9 15 5 8 1013.2 1013.2 0.0
29/10:30am 30.1 29.0 12.1 33 10.5 NE 9 15 5 8 1013.7 1013.6 0.0
29/10:00am 28.7 27.4 11.3 34 10.0 E 9 13 5 7 1013.9 1013.8 0.0
29/09:30am 27.9 27.0 10.6 34 9.8 E 6 13 3 7 1014.2 1014.1 0.0
29/09:00am 26.1 25.4 11.5 40 8.3 E 6 9 3 5 1014.1 1014.0 0.0
29/08:30am 24.4 24.7 11.0 43 7.5 CALM 0 0 0 0 1013.8 1013.7 0.0
29/08:00am 22.3 22.7 11.4 50 6.1 CALM 0 0 0 0 1013.6 1013.5 0.0
29/07:30am 19.6 20.2 11.9 61 4.3 CALM 0 0 0 0 1013.3 1013.3 0.0
29/07:00am 16.6 15.8 10.9 69 3.1 SSW 6 7 3 4 1013.0 1013.0 0.0
29/06:30am 16.3 15.2 10.6 69 3.0 SSW 7 9 4 5 1012.6 1012.6 0.0
29/06:00am 17.4 16.5 10.5 64 3.7 NW 6 7 3 4 1012.3 1012.3 0.0
29/05:30am 19.2 18.3 10.5 57 4.7 WSW 6 7 3 4 1012.1 1012.1 0.0
29/05:00am 21.1 19.1 10.3 50 5.9 WSW 11 13 6 7 1012.2 1012.2 0.0
29/04:30am 20.5 18.7 10.9 54 5.3 WSW 11 15 6 8 1012.1 1012.1 0.0
29/04:00am 22.0 20.5 12.0 53 5.6 WSW 11 15 6 8 1011.8 1011.8 0.0
29/03:30am 21.3 20.3 12.4 57 5.0 W 9 11 5 6 1011.9 1011.9 0.0
29/03:00am 19.1 18.6 13.7 71 3.1 WSW 9 13 5 7 1011.9 1011.9 0.0
29/02:30am 19.0 19.1 14.5 75 2.6 W 7 9 4 5 1011.7 1011.7 0.0
29/02:00am 19.5 19.2 14.3 72 3.0 W 9 11 5 6 1011.8 1011.8 0.0
29/01:30am 20.0 20.1 14.4 70 3.3 WSW 7 9 4 5 1012.0 1012.0 0.0
29/01:00am 22.0 21.8 15.6 67 3.8 WNW 11 13 6 7 1012.2 1012.2 0.0
29/12:30am 22.1 22.9 15.9 68 3.7 W 6 11 3 6 1012.3 1012.3 0.0
29/12:00am 23.0 24.1 17.0 69 3.7 WSW 7 11 4 6 1012.6 1012.6 0.0
 
Date/Time
WST
Temp
°C
App
Temp
°C
Dew
Point
Rel
Hum
%
Delta-T
°C
Wind Press
QNH
hPa
Press
MSL
hPa
Rain
since 9 am
mm
Dir
 
Spd
km/h
Gust
km/h
Spd
kts
Gust
kts
28/11:30pm 23.1 23.7 16.9 68 3.8 W 9 11 5 6 1012.7 1012.7 0.0
28/11:00pm 23.8 23.8 17.3 67 4.0 WNW 13 17 7 9 1013.0 1013.0 0.0
28/10:30pm 22.6 24.4 16.4 68 3.8 NW 2 7 1 4 1013.0 1013.0 0.0
28/10:00pm 23.7 24.8 17.0 66 4.1 WNW 7 9 4 5 1013.2 1013.2 0.0
28/09:30pm 22.7 22.5 15.8 65 4.2 NNW 11 11 6 6 1013.3 1013.3 0.0
28/09:00pm 23.1 24.1 16.4 66 4.1 NNW 6 7 3 4 1013.3 1013.3 0.0
28/08:30pm 24.7 25.2 17.4 64 4.5 WNW 11 13 6 7 1013.3 1013.3 0.0
28/08:00pm 25.4 25.3 17.8 62 4.8 WNW 15 17 8 9 1013.1 1013.1 0.0
28/07:30pm 26.0 25.7 17.4 59 5.4 WNW 15 19 8 10 1012.9 1012.9 0.0
28/07:00pm 26.3 26.1 18.4 61 5.0 WNW 17 20 9 11 1012.7 1012.7 0.0
28/06:30pm 26.5 26.4 17.0 56 5.9 NW 13 15 7 8 1012.3 1012.3 0.0
28/06:00pm 27.1 26.3 17.0 54 6.3 NW 17 20 9 11 1011.8 1011.8 0.0
28/05:30pm 28.1 27.2 18.2 55 6.3 NW 20 24 11 13 1011.6 1011.6 0.0
28/05:00pm 29.3 27.8 17.8 50 7.3 NW 22 26 12 14 1011.4 1011.4 0.0
28/04:30pm 30.0 28.4 16.4 44 8.5 NW 20 24 11 13 1011.3 1011.3 0.0
28/04:00pm 30.8 29.9 17.8 45 8.3 NW 19 26 10 14 1011.2 1011.2 0.0
28/03:30pm 30.9 29.5 16.9 43 8.8 NNW 20 26 11 14 1011.0 1011.0 0.0
28/03:00pm 31.4 29.2 14.5 35 10.3 NNW 19 26 10 14 1011.0 1011.0 0.0
28/02:30pm 31.2 30.6 17.5 44 8.7 NNW 17 28 9 15 1011.1 1011.1 0.0
28/02:00pm 31.9 30.4 16.2 38 9.8 N 19 26 10 14 1011.5 1011.5 0.0
28/01:30pm 31.1 30.8 17.4 44 8.7 NNW 15 24 8 13 1011.8 1011.8 0.0
28/01:00pm 30.8 30.3 17.8 45 8.3 NNW 17 26 9 14 1012.2 1012.2 0.0
28/12:30pm 31.4 30.7 18.7 46 8.2 NNE 20 30 11 16 1012.5 1012.5 0.0
28/12:00pm 30.9 30.9 18.9 48 7.8 NNE 17 24 9 13 1012.8 1012.8 0.0
28/11:30am 30.6 31.3 18.0 47 8.1 NE 11 17 6 9 1013.3 1013.3 0.0
28/11:00am 30.3 31.7 18.7 50 7.5 NNE 9 17 5 9 1013.9 1013.8 0.0
28/10:30am 29.5 31.0 18.0 50 7.3 NNE 7 13 4 7 1014.5 1014.4 0.0
28/10:00am 29.2 31.0 18.3 51 7.0 NNE 6 9 3 5 1014.9 1014.8 0.0
28/09:30am 28.6 31.1 19.0 56 6.2 NNE 4 9 2 5 1015.3 1015.2 0.0
28/09:00am 27.1 30.6 20.4 66 4.4 N 2 6 1 3 1015.4 1015.3 0.0
28/08:30am 26.2 30.6 22.1 78 2.7 N 2 6 1 3 1015.3 1015.2 0.0
28/08:00am 23.7 28.6 22.3 92 0.9 CALM 0 0 0 0 1015.3 1015.2 0.0
28/07:30am 20.8 24.6 20.1 96 0.4 CALM 0 0 0 0 1015.1 1015.0 0.0
28/07:00am 18.4 20.5 17.1 92 0.8 NW 2 6 1 3 1014.9 1014.8 0.0
28/06:30am 19.3 21.0 18.0 92 0.8 NNW 6 6 3 3 1014.7 1014.6 0.0
28/06:00am 19.5 22.1 17.5 88 1.2 CALM 0 0 0 0 1014.7 1014.6 0.0
28/05:30am 20.0 22.9 18.1 89 1.2 CALM 0 0 0 0 1014.5 1014.4 0.0
28/05:00am 20.4 23.3 18.2 87 1.4 CALM 0 0 0 0 1014.3 1014.2 0.0
28/04:30am 20.8 22.6 18.7 88 1.3 SSW 7 7 4 4 1014.4 1014.3 0.0
28/04:00am 21.4 23.8 19.7 90 1.1 W 6 9 3 5 1014.5 1014.4 0.0
28/03:30am 21.5 23.8 19.8 90 1.1 NW 7 9 4 5 1014.5 1014.4 0.0
28/03:00am 21.8 25.5 19.9 89 1.2 CALM 0 0 0 0 1014.7 1014.6 0.0
28/02:30am 22.0 25.8 20.1 89 1.2 CALM 0 0 0 0 1014.8 1014.7 0.0
28/02:00am 22.3 25.2 20.6 90 1.1 WNW 6 6 3 3 1015.0 1014.9 0.0
28/01:30am 22.0 24.3 19.9 88 1.3 NW 7 9 4 5 1015.0 1014.9 0.0
28/01:00am 22.4 24.9 19.9 86 1.6 NW 6 7 3 4 1015.3 1015.2 0.0
28/12:30am 23.0 27.0 20.5 86 1.6 CALM 0 6 0 3 1015.6 1015.5 0.0
28/12:00am 23.1 25.9 20.8 87 1.5 WSW 7 9 4 5 1015.7 1015.6 0.0
 
Date/Time
WST
Temp
°C
App
Temp
°C
Dew
Point
Rel
Hum
%
Delta-T
°C
Wind Press
QNH
hPa
Press
MSL
hPa
Rain
since 9 am
mm
Dir
 
Spd
km/h
Gust
km/h
Spd
kts
Gust
kts
27/11:30pm 22.6 26.4 20.1 86 1.6 CALM 0 0 0 0 1015.7 1015.6 0.0
27/11:00pm 23.0 26.4 20.1 84 1.9 W 2 6 1 3 1015.8 1015.7 0.0
27/10:30pm 24.0 27.1 21.5 86 1.7 W 7 9 4 5 1015.8 1015.7 0.0
27/10:00pm 24.4 27.0 21.9 86 1.7 WSW 11 13 6 7 1015.8 1015.7 0.0
27/09:30pm 24.2 27.1 21.1 83 2.0 W 7 9 4 5 1015.7 1015.6 0.0
27/09:00pm 23.7 26.2 19.8 79 2.5 W 6 7 3 4 1015.5 1015.4 0.0
27/08:30pm 24.8 27.9 21.5 82 2.2 NW 7 9 4 5 1015.4 1015.3 0.0
27/08:00pm 25.0 27.8 21.5 81 2.3 NW 9 11 5 6 1015.1 1015.0 0.0
27/07:30pm 25.0 28.1 21.1 79 2.6 NNW 6 7 3 4 1014.9 1014.8 0.0
27/07:00pm 25.7 28.4 21.4 77 2.8 NW 9 11 5 6 1014.6 1014.5 0.0
27/06:30pm 26.2 28.6 22.3 79 2.6 NNW 13 17 7 9 1014.5 1014.4 0.0
27/06:00pm 26.5 27.6 21.9 76 3.1 NNW 19 24 10 13 1014.3 1014.2 0.0
27/05:30pm 27.5 28.0 21.1 68 4.2 N 20 26 11 14 1013.9 1013.8 0.0
27/05:00pm 28.6 28.6 20.9 63 5.1 N 22 28 12 15 1013.6 1013.5 0.0
27/04:30pm 29.3 28.8 20.7 59 5.7 N 24 28 13 15 1013.3 1013.3 0.0
27/04:00pm 29.7 28.7 19.7 55 6.5 N 24 30 13 16 1013.2 1013.2 0.0
27/03:30pm 29.7 28.1 20.0 56 6.4 N 28 33 15 18 1013.1 1013.1 0.0
27/03:00pm 30.3 28.9 19.6 52 7.0 NNE 26 32 14 17 1013.1 1013.1 0.0
27/02:30pm 30.0 28.0 19.1 52 7.1 NNE 28 35 15 19 1013.2 1013.2 0.0
27/02:00pm 30.4 28.1 18.5 49 7.7 NNE 28 37 15 20 1013.4 1013.4 0.0
27/01:30pm 31.3 29.3 18.3 46 8.4 NNE 26 35 14 19 1013.8 1013.7 0.0
27/01:00pm 32.7 29.8 15.2 34 10.8 NE 24 32 13 17 1014.0 1013.9 0.0
27/12:30pm 32.4 29.3 14.5 33 11.0 NE 24 30 13 16 1014.5 1014.4 0.0
27/12:00pm 32.7 29.8 15.2 34 10.8 NE 24 32 13 17 1015.1 1015.0 0.0
27/11:30am 32.4 29.1 15.0 35 10.7 NE 26 37 14 20 1015.5 1015.4 0.0
27/11:00am 31.5 27.5 14.2 35 10.5 ENE 28 37 15 20 1015.8 1015.7 0.0
27/10:30am 30.8 26.6 13.6 35 10.3 E 28 35 15 19 1016.1 1016.0 0.0
27/10:00am 30.5 26.0 13.7 35 10.1 E 30 37 16 20 1016.3 1016.2 0.0
27/09:30am 29.3 24.3 13.5 38 9.4 E 32 37 17 20 1016.5 1016.4 0.0
27/09:00am 28.2 23.7 14.8 44 8.1 ESE 32 39 17 21 1016.3 1016.2 0.0
27/08:30am 26.9 23.8 15.6 50 6.9 ESE 26 35 14 19 1016.2 1016.1 0.0
27/08:00am 25.0 24.7 18.2 66 4.3 E 17 28 9 15 1015.9 1015.8 0.0
27/07:30am 22.5 25.8 20.0 86 1.6 ESE 2 11 1 6 1015.8 1015.7 0.0
27/07:00am 21.1 23.2 19.4 90 1.1 ENE 7 9 4 5 1015.4 1015.3 0.0
27/06:30am 20.7 22.8 19.0 90 1.1 ESE 6 9 3 5 1015.2 1015.1 0.0
27/06:00am 20.8 22.0 19.1 90 1.1 ESE 11 13 6 7 1015.0 1014.9 0.0
27/05:30am 20.7 22.6 19.0 90 1.1 ESE 7 9 4 5 1014.7 1014.6 0.0
27/05:00am 21.1 22.8 19.4 90 1.1 ESE 9 13 5 7 1014.4 1014.3 0.0
27/04:30am 20.7 21.8 18.8 89 1.2 SE 11 15 6 8 1014.0 1013.9 0.0
27/04:00am 21.0 22.2 19.1 89 1.2 SE 11 13 6 7 1013.8 1013.7 0.0
27/03:30am 21.0 22.1 18.9 88 1.3 ESE 11 15 6 8 1013.7 1013.6 0.0
27/03:00am 20.9 21.9 18.7 87 1.4 ESE 11 13 6 7 1013.7 1013.6 0.0
27/02:30am 21.3 22.8 19.0 87 1.5 S 9 9 5 5 1013.9 1013.8 0.0
27/02:00am 21.7 24.4 18.7 83 1.9 SW 2 7 1 4 1013.8 1013.7 0.0
27/01:30am 22.7 24.5 19.5 82 2.0 SW 9 11 5 6 1014.1 1014.0 0.0
27/01:00am 24.2 26.0 20.3 79 2.5 W 11 15 6 8 1014.2 1014.1 0.0
27/12:30am 24.3 26.9 20.4 79 2.5 WNW 7 9 4 5 1014.4 1014.3 0.0
27/12:00am 24.7 26.7 20.8 79 2.6 NW 11 13 6 7 1014.6 1014.5 0.0
 
Date/Time
WST
Temp
°C
App
Temp
°C
Dew
Point
Rel
Hum
%
Delta-T
°C
Wind Press
QNH
hPa
Press
MSL
hPa
Rain
since 9 am
mm
Dir
 
Spd
km/h
Gust
km/h
Spd
kts
Gust
kts
26/11:30pm 25.4 27.1 20.9 76 3.0 NW 13 20 7 11 1014.6 1014.5 0.0
26/11:00pm 25.7 26.0 20.5 73 3.4 WNW 19 24 10 13 1014.8 1014.7 0.0
26/10:30pm 25.6 26.8 20.6 74 3.3 NW 15 19 8 10 1014.7 1014.6 0.0
26/10:00pm 25.7 27.7 20.7 74 3.3 NW 11 17 6 9 1015.0 1014.9 0.0
26/09:30pm 25.8 27.4 20.8 74 3.3 NW 13 17 7 9 1014.8 1014.7 0.0
26/09:00pm 26.0 26.9 20.8 73 3.4 NW 17 20 9 11 1014.7 1014.6 0.0
26/08:30pm 26.0 27.5 21.2 75 3.2 NW 15 19 8 10 1014.8 1014.7 0.0
26/08:00pm 26.1 27.2 21.3 75 3.2 NW 17 20 9 11 1014.6 1014.5 0.0
26/07:30pm 26.0 27.6 20.8 73 3.4 NW 13 17 7 9 1014.5 1014.4 0.0

Other Formats:

Comma delimited format used in spreadsheet applications
http://www.bom.gov.au/fwo/IDW60801/IDW60801.94308.axf

JavaScript Object Notation format (JSON) in row-major order
http://www.bom.gov.au/fwo/IDW60801/IDW60801.94308.json